createdAt,value
2023-01-17T00:00:36.613Z,97807.25
2023-01-17T00:02:51.244Z,97808.77
2023-01-17T00:05:21.868Z,97802.72
2023-01-17T00:07:53.345Z,97793.58
2023-01-17T00:10:11.148Z,97784.80
2023-01-17T00:12:29.083Z,97787.12
2023-01-17T00:14:40.871Z,97785.91
2023-01-17T00:16:52.454Z,97786.02
2023-01-17T00:19:23.296Z,97791.60
2023-01-17T00:21:54.132Z,97792.95
2023-01-17T00:24:25.476Z,97791.20
2023-01-17T00:26:57.652Z,97787.95
2023-01-17T00:29:09.437Z,97784.30
2023-01-17T00:31:21.353Z,97783.44
2023-01-17T00:33:33.271Z,97782.13
2023-01-17T00:35:45.215Z,97781.58
2023-01-17T00:38:11.243Z,97778.12
2023-01-17T00:40:22.729Z,97770.13
2023-01-17T00:42:34.726Z,97770.08
2023-01-17T00:45:05.349Z,97770.38
2023-01-17T00:47:36.083Z,97757.89
2023-01-17T00:50:06.817Z,97751.35
2023-01-17T00:52:37.655Z,97744.16
2023-01-17T00:55:08.390Z,97741.02
2023-01-17T00:57:39.126Z,97745.61
2023-01-17T01:00:10.367Z,97744.64
2023-01-17T01:02:41.241Z,97741.48
2023-01-17T01:05:12.144Z,97736.61
2023-01-17T01:07:43.287Z,97735.38
2023-01-17T01:10:13.921Z,97734.56
2023-01-17T01:12:44.653Z,97731.42
2023-01-17T01:15:15.488Z,97722.73
2023-01-17T01:17:46.328Z,97703.95
2023-01-17T01:20:16.955Z,97688.67
2023-01-17T01:22:47.811Z,97682.67
2023-01-17T01:25:18.429Z,97686.13
2023-01-17T01:27:49.262Z,97697.40
2023-01-17T01:30:19.994Z,97696.02
2023-01-17T01:32:55.336Z,97697.69
2023-01-17T01:35:07.945Z,97693.42
2023-01-17T01:37:19.532Z,97694.98
2023-01-17T01:39:31.531Z,97696.35
2023-01-17T01:41:43.732Z,97694.99
2023-01-17T01:43:56.231Z,97691.81
2023-01-17T01:46:11.621Z,97686.46
2023-01-17T01:48:35.649Z,97684.45
2023-01-17T01:50:50.375Z,97677.27
2023-01-17T01:53:06.328Z,97675.13
2023-01-17T01:55:24.160Z,97670.27
2023-01-17T01:57:41.069Z,97675.67
2023-01-17T01:59:59.726Z,97674.15
2023-01-17T02:02:12.361Z,97671.63
2023-01-17T02:04:28.017Z,97668.69
2023-01-17T02:06:56.184Z,97664.02
2023-01-17T02:09:11.688Z,97659.05
2023-01-17T02:11:23.554Z,97661.42
2023-01-17T02:13:35.343Z,97659.31
2023-01-17T02:16:09.213Z,97653.85
2023-01-17T02:18:30.975Z,97649.11
2023-01-17T02:20:57.265Z,97649.53
2023-01-17T02:23:51.182Z,97646.70
2023-01-17T02:26:06.044Z,97651.86
2023-01-17T02:28:36.982Z,97647.17
2023-01-17T02:30:54.895Z,97645.13
2023-01-17T02:33:34.262Z,97644.42
2023-01-17T02:35:54.749Z,97639.39
2023-01-17T02:38:44.425Z,97633.55
2023-01-17T02:41:05.636Z,97626.67
2023-01-17T02:43:20.601Z,97623.79
2023-01-17T02:45:32.526Z,97620.40
2023-01-17T02:47:45.616Z,97605.48
2023-01-17T02:50:11.161Z,97598.91
2023-01-17T02:52:33.463Z,97603.52
2023-01-17T02:55:28.570Z,97603.92
2023-01-17T02:57:56.542Z,97605.77
2023-01-17T03:00:21.744Z,97604.88
2023-01-17T03:03:11.420Z,97602.98
2023-01-17T03:05:39.397Z,97609.33
2023-01-17T03:07:52.303Z,97607.02
2023-01-17T03:10:06.082Z,97611.76
2023-01-17T03:12:20.288Z,97604.29
2023-01-17T03:14:32.077Z,97603.64
2023-01-17T03:16:44.529Z,97605.59
2023-01-17T03:18:56.992Z,97603.69
2023-01-17T03:21:08.838Z,97599.67
2023-01-17T03:23:20.680Z,97599.05
2023-01-17T03:25:32.768Z,97605.13
2023-01-17T03:27:44.351Z,97604.85
2023-01-17T03:29:56.350Z,97600.84
2023-01-17T03:32:08.659Z,97596.79
2023-01-17T03:34:20.338Z,97594.79
2023-01-17T03:36:32.228Z,97593.91
2023-01-17T03:38:44.913Z,97597.23
2023-01-17T03:40:57.140Z,97596.32
2023-01-17T03:43:08.951Z,97591.41
2023-01-17T03:45:20.723Z,97581.98
2023-01-17T03:47:32.305Z,97578.67
2023-01-17T03:49:44.312Z,97581.83
2023-01-17T03:51:55.988Z,97577.69
2023-01-17T03:54:09.067Z,97584.48
2023-01-17T03:56:21.417Z,97582.83
2023-01-17T03:58:33.507Z,97581.20
2023-01-17T04:00:45.372Z,97584.67
2023-01-17T04:02:57.193Z,97582.81
2023-01-17T04:05:09.297Z,97590.59
2023-01-17T04:07:22.104Z,97592.97
2023-01-17T04:09:34.717Z,97595.20
2023-01-17T04:11:50.966Z,97591.17
2023-01-17T04:14:03.107Z,97590.42
2023-01-17T04:16:18.245Z,97589.02
2023-01-17T04:18:30.705Z,97585.23
2023-01-17T04:20:43.083Z,97583.35
2023-01-17T04:22:55.283Z,97578.29
2023-01-17T04:25:07.993Z,97578.48
2023-01-17T04:27:19.886Z,97578.94
2023-01-17T04:29:32.390Z,97581.17
2023-01-17T04:31:44.044Z,97575.23
2023-01-17T04:33:56.072Z,97572.50
2023-01-17T04:36:08.578Z,97576.98
2023-01-17T04:38:20.982Z,97576.79
2023-01-17T04:40:32.874Z,97573.70
2023-01-17T04:42:45.794Z,97573.15
2023-01-17T04:44:57.792Z,97574.75
2023-01-17T04:47:09.266Z,97571.63
2023-01-17T04:49:20.969Z,97574.52
2023-01-17T04:51:33.567Z,97571.46
2023-01-17T04:53:45.252Z,97568.02
2023-01-17T04:55:57.276Z,97576.02
2023-01-17T04:58:09.171Z,97577.00
2023-01-17T05:00:24.040Z,97577.52
2023-01-17T05:02:36.359Z,97577.34
2023-01-17T05:04:48.510Z,97578.98
2023-01-17T05:07:00.546Z,97581.55
2023-01-17T05:09:12.335Z,97580.22
2023-01-17T05:11:23.985Z,97585.48
2023-01-17T05:13:35.765Z,97583.15
2023-01-17T05:15:47.886Z,97585.29
2023-01-17T05:17:59.868Z,97583.91
2023-01-17T05:20:11.950Z,97588.88
2023-01-17T05:22:23.750Z,97586.47
2023-01-17T05:24:35.635Z,97589.79
2023-01-17T05:26:54.844Z,97591.02
2023-01-17T05:29:07.292Z,97591.48
2023-01-17T05:31:19.436Z,97592.87
2023-01-17T05:33:31.401Z,97593.78
2023-01-17T05:35:43.404Z,97594.04
2023-01-17T05:37:56.020Z,97599.34
2023-01-17T05:40:09.894Z,97596.48
2023-01-17T05:42:22.039Z,97601.64
2023-01-17T05:44:34.036Z,97596.96
2023-01-17T05:46:45.865Z,97597.80
2023-01-17T05:48:57.624Z,97598.27
2023-01-17T05:51:09.403Z,97600.70
2023-01-17T05:53:21.503Z,97605.36
2023-01-17T05:55:34.848Z,97601.77
2023-01-17T05:57:46.932Z,97610.11
2023-01-17T05:59:58.816Z,97610.52
2023-01-17T06:02:10.381Z,97609.23
2023-01-17T06:04:22.413Z,97607.42
2023-01-17T06:06:33.981Z,97608.02
2023-01-17T06:08:45.573Z,97612.02
2023-01-17T06:10:59.712Z,97615.00
2023-01-17T06:13:15.357Z,97617.48
2023-01-17T06:15:27.386Z,97622.70
2023-01-17T06:17:39.280Z,97620.65
2023-01-17T06:19:51.065Z,97620.40
2023-01-17T06:22:05.405Z,97621.26
2023-01-17T06:24:18.234Z,97626.21
2023-01-17T06:26:30.234Z,97620.31
2023-01-17T06:28:42.531Z,97618.91
2023-01-17T06:30:54.561Z,97620.11
2023-01-17T06:33:06.416Z,97623.08
2023-01-17T06:35:18.718Z,97619.63
2023-01-17T06:37:30.715Z,97624.33
2023-01-17T06:39:42.505Z,97626.44
2023-01-17T06:41:54.192Z,97631.34
2023-01-17T06:44:07.725Z,97632.01
2023-01-17T06:46:20.081Z,97631.15
2023-01-17T06:48:31.709Z,97631.64
2023-01-17T06:50:44.114Z,97632.33
2023-01-17T06:52:59.619Z,97627.96
2023-01-17T06:55:11.380Z,97632.23
2023-01-17T06:57:23.071Z,97631.54
2023-01-17T06:59:35.170Z,97630.16
2023-01-17T07:01:48.646Z,97637.45
2023-01-17T07:04:04.104Z,97642.73
2023-01-17T07:06:20.550Z,97649.25
2023-01-17T07:08:34.620Z,97645.23
2023-01-17T07:10:49.078Z,97648.91
2023-01-17T07:13:01.061Z,97652.98
2023-01-17T07:15:13.485Z,97650.88
2023-01-17T07:17:25.459Z,97654.42
2023-01-17T07:19:37.658Z,97650.07
2023-01-17T07:21:54.160Z,97653.20
2023-01-17T07:24:07.282Z,97652.86
2023-01-17T07:26:19.481Z,97651.78
2023-01-17T07:28:31.472Z,97651.96
2023-01-17T07:30:43.777Z,97655.30
2023-01-17T07:32:55.988Z,97661.48
2023-01-17T07:35:08.685Z,97665.05
2023-01-17T07:37:20.695Z,97669.95
2023-01-17T07:39:32.270Z,97666.12
2023-01-17T07:41:45.184Z,97663.75
2023-01-17T07:43:57.075Z,97664.27
2023-01-17T07:46:08.774Z,97669.04
2023-01-17T07:48:23.750Z,97668.95
2023-01-17T07:50:36.490Z,97666.82
2023-01-17T07:52:51.097Z,97670.88
2023-01-17T07:55:03.503Z,97675.11
2023-01-17T07:57:15.496Z,97676.43
2023-01-17T07:59:27.391Z,97678.69
2023-01-17T08:01:42.204Z,97678.50
2023-01-17T08:03:55.032Z,97683.55
2023-01-17T08:06:16.348Z,97688.92
2023-01-17T08:08:29.190Z,97687.86
2023-01-17T08:10:40.888Z,97690.60
2023-01-17T08:12:52.671Z,97690.86
2023-01-17T08:15:06.059Z,97693.48
2023-01-17T08:17:18.089Z,97691.79
2023-01-17T08:19:29.674Z,97693.14
2023-01-17T08:21:41.470Z,97694.88
2023-01-17T08:23:53.378Z,97700.23
2023-01-17T08:26:05.249Z,97703.79
2023-01-17T08:28:16.936Z,97700.77
2023-01-17T08:30:28.845Z,97705.58
2023-01-17T08:32:41.134Z,97706.35
2023-01-17T08:34:53.022Z,97708.11
2023-01-17T08:37:05.170Z,97712.45
2023-01-17T08:39:17.325Z,97712.50
2023-01-17T08:41:29.109Z,97717.02
2023-01-17T08:43:41.103Z,97717.83
2023-01-17T08:45:56.203Z,97720.69
2023-01-17T08:48:08.061Z,97728.17
2023-01-17T08:50:22.973Z,97730.34
2023-01-17T08:52:36.254Z,97738.52
2023-01-17T08:54:48.198Z,97740.36
2023-01-17T08:56:59.931Z,97744.50
2023-01-17T08:59:12.502Z,97745.31
2023-01-17T09:01:24.723Z,97748.48
2023-01-17T09:03:38.908Z,97750.91
2023-01-17T09:06:11.685Z,97756.63
2023-01-17T09:08:23.981Z,97761.20
2023-01-17T09:10:36.290Z,97763.20
2023-01-17T09:12:48.483Z,97757.98
2023-01-17T09:15:40.779Z,97759.13
2023-01-17T09:18:02.927Z,97763.49
2023-01-17T09:20:30.509Z,97760.14
2023-01-17T09:22:42.826Z,97763.52
2023-01-17T09:24:55.752Z,97768.69
2023-01-17T09:27:07.543Z,97769.16
2023-01-17T09:29:20.744Z,97768.57
2023-01-17T09:31:34.285Z,97771.84
2023-01-17T09:33:47.709Z,97766.64
2023-01-17T09:36:05.641Z,97769.66
2023-01-17T09:38:18.059Z,97776.06
2023-01-17T09:40:30.772Z,97777.61
2023-01-17T09:42:43.942Z,97782.40
2023-01-17T09:44:56.995Z,97787.76
2023-01-17T09:47:35.682Z,97786.23
2023-01-17T09:49:51.602Z,97781.51
2023-01-17T09:52:05.636Z,97784.34
2023-01-17T09:54:24.620Z,97790.13
2023-01-17T09:56:44.576Z,97782.39
2023-01-17T09:59:08.613Z,97783.77
2023-01-17T10:01:43.423Z,97785.77
2023-01-17T10:04:22.633Z,97786.09
2023-01-17T10:06:50.687Z,97785.42
2023-01-17T10:09:08.551Z,97782.76
2023-01-17T10:11:32.802Z,97781.36
2023-01-17T10:14:06.403Z,97782.35
2023-01-17T10:16:27.570Z,97782.72
2023-01-17T10:19:08.359Z,97783.85
2023-01-17T10:21:55.800Z,97782.95
2023-01-17T10:24:42.621Z,97788.61
2023-01-17T10:26:59.015Z,97791.08
2023-01-17T10:29:20.050Z,97797.56
2023-01-17T10:31:43.577Z,97795.55
2023-01-17T10:33:58.454Z,97792.73
2023-01-17T10:36:20.600Z,97795.91
2023-01-17T10:38:38.560Z,97796.52
2023-01-17T10:41:07.742Z,97800.36
2023-01-17T10:43:22.884Z,97805.45
2023-01-17T10:45:59.899Z,97808.88
2023-01-17T10:48:18.953Z,97809.36
2023-01-17T10:51:19.765Z,97816.36
2023-01-17T10:53:54.093Z,97811.45
2023-01-17T10:56:07.517Z,97812.05
2023-01-17T10:58:19.608Z,97813.81
2023-01-17T11:00:58.340Z,97814.67
2023-01-17T11:03:12.618Z,97812.47
2023-01-17T11:05:29.500Z,97816.48
2023-01-17T11:07:57.662Z,97816.50
2023-01-17T11:10:46.634Z,97819.45
2023-01-17T11:12:59.031Z,97821.71
2023-01-17T11:15:11.145Z,97819.21
2023-01-17T11:17:23.220Z,97820.92
2023-01-17T11:19:36.529Z,97816.87
2023-01-17T11:21:58.720Z,97819.55
2023-01-17T11:24:20.607Z,97815.71
2023-01-17T11:26:35.366Z,97814.79
2023-01-17T11:28:47.564Z,97813.77
2023-01-17T11:31:03.739Z,97811.28
2023-01-17T11:33:33.777Z,97809.71
2023-01-17T11:35:45.669Z,97809.14
2023-01-17T11:38:05.244Z,97806.98
2023-01-17T11:40:26.042Z,97806.03
2023-01-17T11:42:38.861Z,97804.96
2023-01-17T11:44:50.647Z,97806.54
2023-01-17T11:47:11.769Z,97804.66
2023-01-17T11:49:25.657Z,97808.36
2023-01-17T11:51:43.273Z,97806.23
2023-01-17T11:54:08.629Z,97806.67
2023-01-17T11:56:24.662Z,97808.84
2023-01-17T11:58:40.604Z,97810.89
2023-01-17T12:01:21.333Z,97813.16
2023-01-17T12:04:01.136Z,97816.54
2023-01-17T12:06:27.415Z,97814.70
2023-01-17T12:08:51.477Z,97814.27
2023-01-17T12:11:10.690Z,97812.40
2023-01-17T12:14:01.308Z,97814.11
2023-01-17T12:16:32.238Z,97816.31
2023-01-17T12:18:57.641Z,97825.64
2023-01-17T12:21:17.926Z,97828.36
2023-01-17T12:23:49.508Z,97821.91
2023-01-17T12:26:19.801Z,97820.89
2023-01-17T12:28:57.091Z,97824.21
2023-01-17T12:31:31.381Z,97821.58
2023-01-17T12:34:01.151Z,97821.91
2023-01-17T12:36:31.260Z,97816.27
2023-01-17T12:38:44.788Z,97815.55
2023-01-17T12:41:03.970Z,97816.50
2023-01-17T12:43:37.424Z,97815.38
2023-01-17T12:45:51.814Z,97819.02
2023-01-17T12:48:13.204Z,97816.33
2023-01-17T12:50:29.628Z,97816.45
2023-01-17T12:53:08.012Z,97823.30
2023-01-17T12:55:50.130Z,97819.05
2023-01-17T12:58:07.574Z,97819.85
2023-01-17T13:00:23.167Z,97818.70
2023-01-17T13:02:53.891Z,97823.22
2023-01-17T13:05:42.797Z,97822.66
2023-01-17T13:07:54.139Z,97825.36
2023-01-17T13:10:33.155Z,97838.27
2023-01-17T13:12:46.950Z,97841.45
2023-01-17T13:15:00.279Z,97842.70
2023-01-17T13:17:38.795Z,97848.05
2023-01-17T13:19:57.956Z,97851.41
2023-01-17T13:22:18.349Z,97858.89
2023-01-17T13:24:48.363Z,97860.31
2023-01-17T13:27:30.205Z,97864.24
2023-01-17T13:30:10.188Z,97871.09
2023-01-17T13:32:24.971Z,97876.23
2023-01-17T13:35:00.871Z,97876.04
2023-01-17T13:37:24.493Z,97881.83
2023-01-17T13:40:05.673Z,97883.69
2023-01-17T13:43:11.638Z,97886.48
2023-01-17T13:45:27.726Z,97891.27
2023-01-17T13:47:41.064Z,97896.38
2023-01-17T13:49:56.879Z,97907.20
2023-01-17T13:52:10.885Z,97917.25
2023-01-17T13:54:32.638Z,97914.89
2023-01-17T13:56:44.539Z,97917.65
2023-01-17T13:59:02.690Z,97918.88
2023-01-17T14:01:15.436Z,97916.67
2023-01-17T14:03:46.590Z,97929.29
2023-01-17T14:05:58.479Z,97926.36
2023-01-17T14:08:17.491Z,97934.82
2023-01-17T14:10:41.005Z,97941.45
2023-01-17T14:12:53.102Z,97941.77
2023-01-17T14:18:34.539Z,97950.24
2023-01-17T14:20:52.264Z,97956.02
2023-01-17T14:23:26.127Z,97960.27
2023-01-17T14:25:40.494Z,97960.21
2023-01-17T14:27:56.992Z,97962.89
2023-01-17T14:30:38.276Z,97967.92
2023-01-17T14:33:06.147Z,97972.77
2023-01-17T14:35:23.979Z,97974.80
2023-01-17T14:37:44.882Z,97977.19
2023-01-17T14:40:01.628Z,97980.41
2023-01-17T14:42:17.683Z,97988.62
2023-01-17T14:44:29.688Z,97993.14
2023-01-17T14:46:48.788Z,98002.66
2023-01-17T14:49:02.972Z,98007.84
2023-01-17T14:51:21.636Z,98011.08
2023-01-17T14:53:34.261Z,98015.05
2023-01-17T14:55:52.063Z,98019.21
2023-01-17T14:58:05.021Z,98020.05
2023-01-17T15:00:20.120Z,98026.45
2023-01-17T15:02:32.686Z,98032.24
2023-01-17T15:04:45.369Z,98034.92
2023-01-17T15:06:59.763Z,98040.11
2023-01-17T15:09:20.416Z,98044.41
2023-01-17T15:11:37.226Z,98045.21
2023-01-17T15:14:01.538Z,98046.02
2023-01-17T15:16:19.401Z,98045.41
2023-01-17T15:18:42.397Z,98048.67
2023-01-17T15:21:00.123Z,98058.85
2023-01-17T15:23:18.941Z,98064.05
2023-01-17T15:25:31.513Z,98069.23
2023-01-17T15:27:43.281Z,98071.33
2023-01-17T15:29:59.263Z,98070.61
2023-01-17T15:32:32.572Z,98069.91
2023-01-17T15:34:49.536Z,98071.02
2023-01-17T15:37:10.677Z,98076.75
2023-01-17T15:39:27.135Z,98075.94
2023-01-17T15:41:40.780Z,98090.14
2023-01-17T15:43:57.589Z,98094.27
2023-01-17T15:46:32.552Z,98099.50
2023-01-17T15:48:45.062Z,98101.95
2023-01-17T15:51:00.331Z,98103.98
2023-01-17T15:53:31.738Z,98109.95
2023-01-17T15:55:45.720Z,98115.09
2023-01-17T15:57:57.588Z,98124.06
2023-01-17T16:00:14.940Z,98129.75
2023-01-17T16:02:42.921Z,98131.25
2023-01-17T16:04:55.921Z,98132.21
2023-01-17T16:07:22.562Z,98138.70
2023-01-17T16:09:43.879Z,98141.71
2023-01-17T16:11:55.766Z,98143.70
2023-01-17T16:14:08.167Z,98145.45
2023-01-17T16:16:23.776Z,98149.23
2023-01-17T16:18:36.696Z,98150.52
2023-01-17T16:21:08.830Z,98146.60
2023-01-17T16:23:21.038Z,98149.20
2023-01-17T16:25:33.440Z,98150.75
2023-01-17T16:27:46.147Z,98150.48
2023-01-17T16:29:58.147Z,98151.63
2023-01-17T16:32:09.742Z,98151.02
2023-01-17T16:34:24.087Z,98150.09
2023-01-17T16:36:37.030Z,98151.84
2023-01-17T16:38:51.146Z,98156.47
2023-01-17T16:41:04.675Z,98154.70
2023-01-17T16:43:19.451Z,98154.54
2023-01-17T16:45:31.835Z,98154.02
2023-01-17T16:47:45.811Z,98157.02
2023-01-17T16:49:57.562Z,98158.77
2023-01-17T16:52:09.557Z,98160.27
2023-01-17T16:54:21.242Z,98160.93
2023-01-17T16:56:33.547Z,98164.50
2023-01-17T16:58:46.053Z,98163.39
2023-01-17T17:00:58.569Z,98169.80
2023-01-17T17:03:18.977Z,98173.89
2023-01-17T17:05:33.619Z,98172.95
2023-01-17T17:07:51.555Z,98174.48
2023-01-17T17:10:04.084Z,98169.91
2023-01-17T17:12:15.737Z,98162.80
2023-01-17T17:14:27.490Z,98161.28
2023-01-17T17:16:39.223Z,98165.77
2023-01-17T17:18:59.398Z,98164.01
2023-01-17T17:21:12.117Z,98162.75
2023-01-17T17:23:24.009Z,98155.73
2023-01-17T17:25:36.635Z,98153.75
2023-01-17T17:27:50.343Z,98153.79
2023-01-17T17:30:02.763Z,98159.55
2023-01-17T17:32:14.541Z,98159.46
2023-01-17T17:34:27.869Z,98155.38
2023-01-17T17:36:40.191Z,98160.36
2023-01-17T17:38:55.860Z,98155.84
2023-01-17T17:41:11.949Z,98157.59
2023-01-17T17:43:26.400Z,98162.09
2023-01-17T17:45:38.289Z,98163.14
2023-01-17T17:47:51.335Z,98166.11
2023-01-17T17:50:03.911Z,98174.16
2023-01-17T17:52:15.703Z,98180.97
2023-01-17T17:54:27.804Z,98181.44
2023-01-17T17:56:39.999Z,98187.36
2023-01-17T17:58:51.687Z,98190.31
2023-01-17T18:01:06.196Z,98188.55
2023-01-17T18:03:18.136Z,98195.23
2023-01-17T18:05:30.232Z,98197.65
2023-01-17T18:07:42.093Z,98195.98
2023-01-17T18:09:54.171Z,98192.83
2023-01-17T18:12:14.262Z,98187.19
2023-01-17T18:14:26.921Z,98188.92
2023-01-17T18:16:42.827Z,98187.84
2023-01-17T18:18:56.841Z,98190.47
2023-01-17T18:21:15.867Z,98190.38
2023-01-17T18:23:27.591Z,98193.11
2023-01-17T18:25:43.272Z,98195.09
2023-01-17T18:27:55.380Z,98187.61
2023-01-17T18:30:12.599Z,98190.42
2023-01-17T18:32:24.889Z,98195.13
2023-01-17T18:34:41.636Z,98199.81
2023-01-17T18:36:54.207Z,98201.83
2023-01-17T18:39:15.458Z,98211.25
2023-01-17T18:41:31.127Z,98219.81
2023-01-17T18:43:43.888Z,98223.88
2023-01-17T18:45:55.802Z,98233.44
2023-01-17T18:48:07.798Z,98241.83
2023-01-17T18:50:19.483Z,98248.27
2023-01-17T18:52:31.280Z,98249.38
2023-01-17T18:54:43.368Z,98255.96
2023-01-17T18:56:55.992Z,98257.38
2023-01-17T18:59:12.683Z,98260.15
2023-01-17T19:01:30.791Z,98261.27
2023-01-17T19:03:44.531Z,98257.73
2023-01-17T19:06:01.823Z,98255.67
2023-01-17T19:08:13.367Z,98257.04
2023-01-17T19:10:26.083Z,98260.46
2023-01-17T19:12:37.964Z,98262.59
2023-01-17T19:14:49.860Z,98268.05
2023-01-17T19:17:01.895Z,98271.10
2023-01-17T19:19:16.626Z,98272.95
2023-01-17T19:21:30.346Z,98275.39
2023-01-17T19:23:46.040Z,98279.19
2023-01-17T19:26:02.536Z,98279.23
2023-01-17T19:28:16.691Z,98281.29
2023-01-17T19:31:19.034Z,98285.61
2023-01-17T19:34:03.736Z,98285.84
2023-01-17T19:36:20.174Z,98285.09
2023-01-17T19:38:37.914Z,98280.69
2023-01-17T19:40:55.772Z,98281.96
2023-01-17T19:43:14.627Z,98282.13
2023-01-17T19:45:27.054Z,98283.30
2023-01-17T19:48:17.011Z,98284.25
2023-01-17T19:50:30.648Z,98285.70
2023-01-17T19:52:42.643Z,98279.36
2023-01-17T19:54:54.841Z,98275.16
2023-01-17T19:57:06.918Z,98271.66
2023-01-17T19:59:20.245Z,98273.48
2023-01-17T20:01:33.860Z,98281.51
2023-01-17T20:03:46.548Z,98284.27
2023-01-17T20:05:58.295Z,98284.88
2023-01-17T20:08:11.314Z,98282.58
2023-01-17T20:10:25.274Z,98280.85
2023-01-17T20:12:37.010Z,98285.46
2023-01-17T20:14:49.882Z,98285.05
2023-01-17T20:17:02.893Z,98287.40
2023-01-17T20:19:16.156Z,98288.73
2023-01-17T20:21:29.763Z,98290.61
2023-01-17T20:23:43.572Z,98295.71
2023-01-17T20:26:01.915Z,98300.44
2023-01-17T20:28:14.013Z,98300.31
2023-01-17T20:30:30.311Z,98303.54
2023-01-17T20:32:42.311Z,98306.29
2023-01-17T20:34:54.663Z,98307.86
2023-01-17T20:37:08.750Z,98306.33
2023-01-17T20:39:20.438Z,98308.81
2023-01-17T20:41:36.968Z,98316.50
2023-01-17T20:43:52.496Z,98313.44
2023-01-17T20:46:06.616Z,98315.86
2023-01-17T20:48:20.895Z,98318.53
2023-01-17T20:50:36.882Z,98317.33
2023-01-17T20:52:49.841Z,98323.21
2023-01-17T20:55:02.115Z,98324.82
2023-01-17T20:57:13.906Z,98329.21
2023-01-17T20:59:26.925Z,98332.13
2023-01-17T21:01:39.384Z,98331.43
2023-01-17T21:04:50.208Z,98337.66
2023-01-17T21:07:15.116Z,98340.64
2023-01-17T21:09:29.126Z,98341.89
2023-01-17T21:11:48.666Z,98343.04
2023-01-17T21:14:01.788Z,98350.98
2023-01-17T21:16:14.400Z,98346.90
2023-01-17T21:18:29.581Z,98344.55
2023-01-17T21:20:41.200Z,98339.18
2023-01-17T21:22:52.784Z,98339.38
2023-01-17T21:25:05.397Z,98341.23
2023-01-17T21:27:17.908Z,98344.52
2023-01-17T21:29:31.649Z,98347.39
2023-01-17T21:31:45.341Z,98359.41
2023-01-17T21:34:02.701Z,98354.63
2023-01-17T21:36:14.995Z,98360.02
2023-01-17T21:38:26.988Z,98366.39
2023-01-17T21:40:38.981Z,98379.52
2023-01-17T21:42:51.284Z,98389.55
2023-01-17T21:45:03.898Z,98393.86
2023-01-17T21:47:15.790Z,98399.45
2023-01-17T21:49:28.017Z,98398.46
2023-01-17T21:51:53.833Z,98395.07
2023-01-17T21:54:06.421Z,98403.80
2023-01-17T21:56:36.943Z,98409.46
2023-01-17T21:58:53.850Z,98411.56
2023-01-17T22:01:15.962Z,98408.86
2023-01-17T22:03:27.884Z,98409.86
2023-01-17T22:05:39.777Z,98405.42
2023-01-17T22:08:11.322Z,98407.91
2023-01-17T22:10:23.115Z,98402.61
2023-01-17T22:12:35.412Z,98400.40
2023-01-17T22:14:46.998Z,98396.17
2023-01-17T22:16:58.706Z,98388.89
2023-01-17T22:19:10.476Z,98378.76
2023-01-17T22:21:28.444Z,98375.40
2023-01-17T22:23:45.526Z,98374.73
2023-01-17T22:26:09.836Z,98368.02
2023-01-17T22:28:21.597Z,98362.25
2023-01-17T22:30:33.387Z,98350.77
2023-01-17T22:32:45.282Z,98349.32
2023-01-17T22:34:56.967Z,98345.81
2023-01-17T22:37:10.320Z,98345.65
2023-01-17T22:39:22.102Z,98342.77
2023-01-17T22:41:35.413Z,98337.57
2023-01-17T22:43:50.396Z,98328.09
2023-01-17T22:46:02.409Z,98322.58
2023-01-17T22:48:15.490Z,98324.59
2023-01-17T22:50:31.173Z,98326.97
2023-01-17T22:52:44.188Z,98344.09
2023-01-17T22:54:56.088Z,98352.42
2023-01-17T22:57:08.021Z,98355.72
2023-01-17T22:59:19.765Z,98357.45
2023-01-17T23:01:33.089Z,98356.16
2023-01-17T23:03:46.563Z,98352.30
2023-01-17T23:06:07.836Z,98346.20
2023-01-17T23:08:22.216Z,98344.84
2023-01-17T23:10:53.737Z,98339.01
2023-01-17T23:13:09.890Z,98335.59
2023-01-17T23:15:40.692Z,98335.90
2023-01-17T23:18:11.441Z,98329.35
2023-01-17T23:20:23.291Z,98325.90
2023-01-17T23:22:35.488Z,98328.48
2023-01-17T23:24:54.649Z,98334.95
2023-01-17T23:27:25.249Z,98336.71
2023-01-17T23:29:37.385Z,98331.85
2023-01-17T23:31:49.476Z,98326.31
2023-01-17T23:34:01.063Z,98326.20
2023-01-17T23:36:12.757Z,98331.42
2023-01-17T23:38:29.558Z,98333.35
2023-01-17T23:40:42.582Z,98321.92
2023-01-17T23:43:13.206Z,98309.09
2023-01-17T23:45:25.253Z,98308.70
2023-01-17T23:47:37.194Z,98308.95
2023-01-17T23:49:49.028Z,98313.09
2023-01-17T23:52:00.671Z,98313.33
2023-01-17T23:54:13.079Z,98314.15
2023-01-17T23:56:25.077Z,98312.30
2023-01-17T23:58:37.176Z,98314.36
